Time;durP1;ratioP1;P1;durP2;ratioP2;P2;SDS_P1;SDS_P2;PMS_P1;PMS_P2;Temp;Humidity;BMP_temperature;BMP_pressure;BME280_temperature;BME280_humidity;BME280_pressure;Samples;Min_cycle;Max_cycle;Signal;HPM_P1;HPM_P2
2022/03/29 00:00:18;;;;;;;2.20;1.00;;;;;;;14.95;81.75;100385.19;4918308;29;20048;-77
2022/03/29 00:02:47;;;;;;;6.32;1.52;;;;;;;14.92;81.29;100381.72;4915177;29;20135;-75
2022/03/29 00:05:17;;;;;;;1.48;0.93;;;;;;;14.91;79.79;100387.78;4913011;29;20064;-75
2022/03/29 00:07:45;;;;;;;1.52;0.90;;;;;;;14.87;81.07;100386.91;4912853;29;20330;-78
2022/03/29 00:10:14;;;;;;;5.45;1.38;;;;;;;14.84;80.90;100386.88;4912811;29;20052;-75
2022/03/29 00:12:42;;;;;;;3.60;1.25;;;;;;;14.77;81.04;100380.75;4912455;29;20092;-78
2022/03/29 00:15:12;;;;;;;4.60;1.73;;;;;;;14.80;81.84;100396.41;4912427;29;20048;-78
2022/03/29 00:17:40;;;;;;;2.33;1.05;;;;;;;14.79;82.37;100396.38;4913412;28;20581;-80
2022/03/29 00:20:10;;;;;;;3.63;1.38;;;;;;;14.77;83.61;100393.75;4912380;29;20108;-78
2022/03/29 00:22:40;;;;;;;3.00;1.00;;;;;;;14.74;83.39;100391.16;4912062;29;20147;-79
2022/03/29 00:25:10;;;;;;;1.92;1.15;;;;;;;14.73;82.98;100393.72;4929468;29;20111;-77
2022/03/29 00:27:39;;;;;;;1.75;1.13;;;;;;;14.70;83.31;100393.72;4931673;29;20103;-78
2022/03/29 00:30:11;;;;;;;1.52;1.10;;;;;;;14.66;83.26;100392.84;4931361;29;20107;-77
2022/03/29 00:32:40;;;;;;;2.45;1.02;;;;;;;14.66;85.10;100404.13;4931613;29;20051;-77
2022/03/29 00:35:10;;;;;;;3.50;1.30;;;;;;;14.65;86.17;100393.69;4930888;29;20075;-80
2022/03/29 00:37:41;;;;;;;2.05;1.23;;;;;;;14.64;87.13;100400.63;4931372;29;20044;-83
2022/03/29 00:40:14;;;;;;;1.63;1.00;;;;;;;14.65;87.65;100404.97;4941497;29;20051;-85
2022/03/29 00:42:45;;;;;;;1.45;0.90;;;;;;;14.58;87.63;100389.31;4937820;29;20052;-85
2022/03/29 00:45:14;;;;;;;2.95;1.02;;;;;;;14.63;86.64;100403.22;4938450;29;20106;-83
2022/03/29 00:47:42;;;;;;;4.45;0.93;;;;;;;14.63;86.91;100400.63;4941668;29;20410;-85
2022/03/29 00:50:11;;;;;;;3.05;1.10;;;;;;;14.65;87.42;100399.75;4944064;29;20448;-82
2022/03/29 00:52:42;;;;;;;2.20;1.05;;;;;;;14.64;87.50;100400.63;4941373;29;20055;-83
2022/03/29 00:55:14;;;;;;;3.20;1.00;;;;;;;14.65;88.34;100404.97;4943977;29;20052;-86
2022/03/29 00:57:45;;;;;;;3.80;1.25;;;;;;;14.65;89.30;100412.78;4942869;29;20498;-85
2022/03/29 01:00:17;;;;;;;3.13;1.35;;;;;;;14.65;89.34;100412.78;4937595;29;20103;-83
2022/03/29 01:02:54;;;;;;;1.25;1.05;;;;;;;14.64;89.81;100410.19;4940388;29;20127;-83
2022/03/29 01:05:23;;;;;;;1.73;1.10;;;;;;;14.64;89.52;100412.78;4937278;29;20075;-84
2022/03/29 01:07:54;;;;;;;1.38;1.00;;;;;;;14.64;89.73;100418.00;4934273;29;20058;-82
2022/03/29 01:10:24;;;;;;;2.13;1.20;;;;;;;14.64;89.13;100412.78;4932381;29;20103;-80
2022/03/29 01:12:53;;;;;;;4.28;1.50;;;;;;;14.64;89.76;100416.25;4932496;29;20056;-84
2022/03/29 01:15:23;;;;;;;5.13;1.33;;;;;;;14.66;88.14;100413.69;4931053;29;20627;-79
2022/03/29 01:17:51;;;;;;;2.88;1.45;;;;;;;14.65;88.52;100417.13;4931787;28;20159;-80
2022/03/29 01:20:21;;;;;;;2.65;1.55;;;;;;;14.63;88.04;100413.63;4931393;29;20052;-79
2022/03/29 01:22:52;;;;;;;3.45;1.65;;;;;;;14.64;88.40;100421.47;4931205;29;20048;-81
2022/03/29 01:25:23;;;;;;;5.45;2.03;;;;;;;14.64;88.75;100418.88;4931922;29;20093;-82
2022/03/29 01:27:52;;;;;;;5.25;2.13;;;;;;;14.65;89.19;100422.34;4933548;29;20107;-76
2022/03/29 01:30:22;;;;;;;5.07;1.75;;;;;;;14.65;89.26;100433.63;4933738;29;20090;-77
2022/03/29 01:32:53;;;;;;;3.25;1.77;;;;;;;14.68;89.01;100424.09;4933849;29;20052;-77
2022/03/29 01:35:23;;;;;;;2.35;1.48;;;;;;;14.67;88.88;100423.22;4938173;29;20505;-75
2022/03/29 01:37:54;;;;;;;2.75;1.27;;;;;;;14.66;88.88;100422.34;4952880;29;20075;-77
2022/03/29 01:40:24;;;;;;;2.75;1.52;;;;;;;14.66;89.63;100429.31;4957630;28;20151;-83
2022/03/29 01:42:54;;;;;;;3.92;1.63;;;;;;;14.67;89.80;100436.25;4956702;29;20059;-84
2022/03/29 01:45:25;;;;;;;1.75;0.98;;;;;;;14.68;90.21;100440.56;4955112;29;20075;-85
2022/03/29 01:47:54;;;;;;;2.70;1.27;;;;;;;14.70;90.63;100435.38;4955450;29;20557;-83
2022/03/29 01:50:23;;;;;;;1.67;1.42;;;;;;;14.66;90.20;100451.00;4956615;29;20051;-84
2022/03/29 01:52:53;;;;;;;2.08;1.33;;;;;;;14.67;90.49;100451.88;4956675;29;20106;-84
2022/03/29 01:55:23;;;;;;;3.38;1.55;;;;;;;14.65;90.60;100457.06;4953833;29;20143;-84
2022/03/29 01:57:59;;;;;;;3.67;1.38;;;;;;;14.63;90.10;100455.28;4953110;29;20051;-84
2022/03/29 02:00:35;;;;;;;2.17;1.67;;;;;;;14.63;89.94;100466.56;4953203;29;20054;-83
2022/03/29 02:03:06;;;;;;;2.40;1.20;;;;;;;14.63;90.91;100471.78;4952277;29;20142;-83
2022/03/29 02:05:34;;;;;;;5.07;1.80;;;;;;;14.60;91.44;100473.50;4953245;29;20142;-85
2022/03/29 02:08:07;;;;;;;2.63;1.48;;;;;;;14.58;92.26;100473.50;4953239;29;20055;-83
2022/03/29 02:10:35;;;;;;;;;;;;;;;14.57;95.73;100478.72;4955183;29;20071;-84
2022/03/29 02:13:03;;;;;;;2.35;1.40;;;;;;;14.60;96.89;100483.94;4957265;29;19930;-85
2022/03/29 02:15:32;;;;;;;2.63;1.48;;;;;;;14.59;96.22;100482.16;4958492;29;20078;-84
2022/03/29 02:18:00;;;;;;;4.70;1.92;;;;;;;14.59;96.35;100483.06;4955869;28;20516;-77
2022/03/29 02:20:29;;;;;;;2.75;1.35;;;;;;;14.57;97.37;100486.50;4952143;29;20063;-76
2022/03/29 02:23:06;;;;;;;2.85;1.50;;;;;;;14.55;97.68;100483.88;4949401;29;20057;-81
2022/03/29 02:25:35;;;;;;;2.50;1.50;;;;;;;14.58;98.03;100488.25;4932706;29;20056;-75
2022/03/29 02:28:03;;;;;;;2.95;1.55;;;;;;;14.56;100.00;100487.34;4933328;29;20051;-78
2022/03/29 02:30:32;;;;;;;2.53;1.30;;;;;;;14.52;100.00;100488.16;4932183;29;20087;-76
2022/03/29 02:33:01;;;;;;;4.43;1.40;;;;;;;14.46;100.00;100489.84;4931685;29;20708;-76
2022/03/29 02:35:30;;;;;;;1.80;1.10;;;;;;;14.44;100.00;100495.91;4932236;29;20055;-78
2022/03/29 02:37:59;;;;;;;2.80;1.70;;;;;;;14.36;100.00;100497.53;4932347;29;20557;-75
2022/03/29 02:40:29;;;;;;;3.40;1.55;;;;;;;14.31;100.00;100504.44;4932936;29;20051;-77
2022/03/29 02:42:57;;;;;;;2.85;1.30;;;;;;;14.27;100.00;100506.16;4932625;29;20546;-77
2022/03/29 02:45:28;;;;;;;3.70;1.35;;;;;;;14.24;100.00;100514.78;4934654;29;20107;-75
2022/03/29 02:47:58;;;;;;;3.90;1.77;;;;;;;14.24;100.00;100519.09;4934023;29;20050;-76
2022/03/29 02:50:27;;;;;;;2.78;1.30;;;;;;;14.26;100.00;100517.41;4933184;29;20103;-77
2022/03/29 02:52:57;;;;;;;2.95;1.55;;;;;;;14.26;100.00;100525.22;4932900;29;20124;-77
2022/03/29 02:55:26;;;;;;;3.28;1.55;;;;;;;14.26;100.00;100525.22;4932779;29;20119;-77
2022/03/29 02:57:57;;;;;;;1.98;1.40;;;;;;;14.22;100.00;100536.44;4932399;29;20047;-75
2022/03/29 03:00:27;;;;;;;3.00;1.48;;;;;;;14.15;100.00;100529.41;4931816;29;20438;-78
2022/03/29 03:02:57;;;;;;;4.20;1.38;;;;;;;14.09;100.00;100529.34;4931921;29;20438;-77
2022/03/29 03:05:25;;;;;;;3.30;1.48;;;;;;;14.06;100.00;100529.31;4931418;29;20094;-78
2022/03/29 03:07:55;;;;;;;3.80;1.67;;;;;;;14.08;100.00;100535.41;4932524;29;20056;-76
2022/03/29 03:10:25;;;;;;;2.03;1.40;;;;;;;14.08;100.00;100535.41;4932515;29;20062;-76
2022/03/29 03:12:53;;;;;;;1.85;1.42;;;;;;;14.07;100.00;100531.06;4931574;29;20192;-76
2022/03/29 03:15:25;;;;;;;2.22;1.20;;;;;;;14.01;100.00;100550.94;4932363;29;20062;-76
2022/03/29 03:17:54;;;;;;;2.45;1.30;;;;;;;13.97;100.00;100549.19;4933548;28;20075;-77
2022/03/29 03:20:23;;;;;;;5.32;1.55;;;;;;;13.96;100.00;100554.34;4932775;29;20056;-76
2022/03/29 03:22:52;;;;;;;5.63;1.35;;;;;;;13.93;100.00;100555.19;4931585;29;20079;-75
2022/03/29 03:25:21;;;;;;;3.38;1.10;;;;;;;13.92;100.00;100556.03;4936627;29;20059;-76
2022/03/29 03:27:49;;;;;;;6.43;1.23;;;;;;;13.92;100.00;100562.97;4931863;29;20107;-76
2022/03/29 03:30:18;;;;;;;5.03;1.35;;;;;;;13.91;100.00;100572.50;4931879;29;20099;-76
2022/03/29 03:32:49;;;;;;;3.22;1.42;;;;;;;13.94;100.00;100571.66;4931815;29;20056;-77
2022/03/29 03:35:17;;;;;;;5.07;1.25;;;;;;;13.97;100.00;100582.09;4930942;29;20059;-77
2022/03/29 03:37:46;;;;;;;2.03;1.17;;;;;;;14.00;100.00;100588.22;4931186;29;20052;-78
2022/03/29 03:40:15;;;;;;;2.60;1.55;;;;;;;14.02;100.00;100596.06;4932053;29;20800;-78
2022/03/29 03:42:43;;;;;;;3.03;1.40;;;;;;;14.00;100.00;100598.63;4934890;29;20569;-78
2022/03/29 03:45:12;;;;;;;3.47;1.10;;;;;;;13.97;100.00;100593.41;4932026;29;20044;-76
2022/03/29 03:47:41;;;;;;;3.85;1.50;;;;;;;13.95;100.00;100600.31;4931587;29;20048;-77
2022/03/29 03:50:11;;;;;;;2.28;1.00;;;;;;;13.95;100.00;100600.31;4930428;29;20636;-78
2022/03/29 03:52:40;;;;;;;4.90;1.30;;;;;;;13.98;100.00;100607.28;4932084;29;20059;-82
2022/03/29 03:55:09;;;;;;;6.25;1.50;;;;;;;13.97;100.00;100614.22;4931470;29;20525;-79
2022/03/29 03:57:38;;;;;;;4.38;2.13;;;;;;;13.93;100.00;100615.00;4931956;29;20051;-78
2022/03/29 04:00:07;;;;;;;6.07;1.95;;;;;;;13.91;100.00;100626.25;4931639;29;20417;-80
2022/03/29 04:02:36;;;;;;;3.97;1.98;;;;;;;13.88;100.00;100629.69;4931583;29;20123;-80
2022/03/29 04:05:05;;;;;;;3.25;1.33;;;;;;;13.85;100.00;100629.63;4931214;29;20485;-77
2022/03/29 04:07:35;;;;;;;4.28;1.35;;;;;;;13.83;100.00;100634.84;4931202;29;20051;-82
2022/03/29 04:10:04;;;;;;;1.38;0.88;;;;;;;13.79;100.00;100634.75;4931752;29;20111;-78
2022/03/29 04:12:33;;;;;;;2.08;0.80;;;;;;;13.79;100.00;100645.16;4931230;29;20079;-77
2022/03/29 04:15:01;;;;;;;3.03;1.20;;;;;;;13.78;100.00;100639.06;4931108;29;20043;-77
2022/03/29 04:17:31;;;;;;;1.05;0.70;;;;;;;13.68;100.00;100636.34;4931831;28;20119;-76
2022/03/29 04:20:01;;;;;;;2.30;0.60;;;;;;;13.75;100.00;100656.38;4930897;29;20474;-76
2022/03/29 04:22:29;;;;;;;0.90;0.50;;;;;;;13.70;100.00;100655.41;4931308;29;20044;-78
2022/03/29 04:25:00;;;;;;;0.40;0.30;;;;;;;13.59;100.00;100658.72;4930052;29;20111;-76
2022/03/29 04:27:28;;;;;;;0.30;0.20;;;;;;;13.56;100.00;100674.28;4931335;29;20052;-77
2022/03/29 04:29:56;;;;;;;2.85;0.30;;;;;;;13.50;90.47;100668.09;4930414;29;20099;-76
2022/03/29 04:32:25;;;;;;;2.42;0.47;;;;;;;13.47;83.51;100674.13;4930959;29;20095;-75
2022/03/29 04:34:53;;;;;;;1.30;0.80;;;;;;;13.43;81.70;100677.53;4930781;29;20102;-76
2022/03/29 04:37:24;;;;;;;1.60;0.57;;;;;;;13.40;78.91;100677.50;4932774;29;20067;-76
2022/03/29 04:39:53;;;;;;;0.55;0.40;;;;;;;13.31;78.85;100680.81;4932547;29;20568;-76
2022/03/29 04:42:23;;;;;;;0.63;0.30;;;;;;;13.34;78.89;100690.38;4931221;29;20060;-75
2022/03/29 04:44:51;;;;;;;0.65;0.30;;;;;;;13.31;78.57;100692.91;4931157;29;20540;-76
2022/03/29 04:47:20;;;;;;;0.93;0.28;;;;;;;13.29;78.28;100694.63;4930203;29;20055;-75
2022/03/29 04:49:48;;;;;;;0.75;0.25;;;;;;;13.26;77.56;100691.91;4931263;29;20086;-76
2022/03/29 04:52:17;;;;;;;0.82;0.40;;;;;;;13.20;76.64;100695.28;4930386;29;20139;-76
2022/03/29 04:54:45;;;;;;;1.55;0.30;;;;;;;13.14;77.65;100705.56;4931350;29;20131;-76
2022/03/29 04:57:13;;;;;;;1.10;0.30;;;;;;;13.08;76.92;100708.94;4930989;29;20056;-76
2022/03/29 04:59:44;;;;;;;0.55;0.40;;;;;;;13.02;76.48;100714.00;4931349;29;20138;-75
2022/03/29 05:02:12;;;;;;;0.25;0.22;;;;;;;12.99;77.24;100722.63;4934337;29;20055;-73
2022/03/29 05:04:40;;;;;;;1.60;0.20;;;;;;;12.99;76.09;100729.56;4934204;29;20135;-73
2022/03/29 05:07:09;;;;;;;1.48;0.40;;;;;;;12.97;76.97;100731.25;4934821;29;20047;-74
2022/03/29 05:09:37;;;;;;;1.25;0.22;;;;;;;12.93;76.11;100737.22;4934581;29;20060;-76
2022/03/29 05:12:06;;;;;;;0.80;0.30;;;;;;;12.89;75.84;100740.59;4934216;29;20091;-75
2022/03/29 05:14:35;;;;;;;1.60;0.38;;;;;;;12.88;76.93;100744.03;4935173;29;20527;-77
2022/03/29 05:17:06;;;;;;;0.63;0.32;;;;;;;12.84;77.11;100745.69;4935591;28;20115;-76
2022/03/29 05:19:34;;;;;;;0.93;0.30;;;;;;;12.83;78.11;100746.53;4934301;29;20048;-75
2022/03/29 05:22:03;;;;;;;0.68;0.32;;;;;;;12.83;79.24;100751.75;4938474;29;20093;-75
2022/03/29 05:24:31;;;;;;;0.43;0.10;;;;;;;12.85;78.53;100756.94;4935239;29;20493;-76
2022/03/29 05:26:59;;;;;;;0.77;0.30;;;;;;;12.87;79.99;100763.06;4934266;29;20071;-75
2022/03/29 05:29:30;;;;;;;0.17;0.10;;;;;;;12.87;79.94;100766.50;4933524;29;20071;-74
2022/03/29 05:31:59;;;;;;;1.95;0.40;;;;;;;12.91;78.62;100770.94;4934595;29;20055;-75
2022/03/29 05:34:29;;;;;;;0.80;0.35;;;;;;;12.93;78.92;100766.66;4935871;29;20135;-74
2022/03/29 05:36:58;;;;;;;0.38;0.20;;;;;;;12.94;77.28;100764.91;4933935;29;20394;-75
2022/03/29 05:39:26;;;;;;;0.90;0.40;;;;;;;12.93;77.85;100768.38;4934110;29;20108;-78
2022/03/29 05:41:55;;;;;;;0.80;0.30;;;;;;;12.92;78.38;100777.03;4933726;29;20047;-77
2022/03/29 05:44:23;;;;;;;0.25;0.08;;;;;;;12.90;77.80;100774.38;4933195;29;20060;-77
2022/03/29 05:49:39;;;;;;;1.00;0.30;;;;;;;12.90;78.69;100774.38;4934337;29;20054;-78
2022/03/29 05:52:08;;;;;;;1.25;0.17;;;;;;;12.90;78.33;100782.19;4933180;29;20054;-77
2022/03/29 05:54:37;;;;;;;1.38;0.22;;;;;;;12.91;78.78;100785.66;4933722;29;20516;-81
2022/03/29 05:57:06;;;;;;;0.32;0.15;;;;;;;12.90;78.48;100789.09;4934009;29;20490;-77
2022/03/29 05:59:36;;;;;;;1.30;0.28;;;;;;;12.90;77.05;100789.97;4933466;29;20055;-80
2022/03/29 06:02:05;;;;;;;1.27;0.52;;;;;;;12.87;76.48;100791.63;4933599;29;20138;-79
2022/03/29 06:04:34;;;;;;;0.77;0.45;;;;;;;12.82;74.72;100793.25;4933312;29;20059;-77
2022/03/29 06:07:05;;;;;;;1.15;0.60;;;;;;;12.80;76.72;100793.19;4933754;29;20450;-77
2022/03/29 06:09:35;;;;;;;0.87;0.30;;;;;;;12.80;77.62;100801.00;4933550;29;20105;-78
2022/03/29 06:12:05;;;;;;;1.85;0.30;;;;;;;12.80;78.11;100803.59;4932312;29;20120;-79
2022/03/29 06:14:34;;;;;;;0.57;0.30;;;;;;;12.78;76.90;100803.56;4933575;29;20103;-79
2022/03/29 06:17:04;;;;;;;0.68;0.30;;;;;;;12.77;74.97;100812.19;4933859;28;20462;-78
2022/03/29 06:19:34;;;;;;;0.20;0.10;;;;;;;12.77;73.81;100819.97;4932955;29;20056;-78
2022/03/29 06:22:04;;;;;;;0.98;0.30;;;;;;;12.76;75.53;100812.19;4932271;29;20044;-78
2022/03/29 06:24:33;;;;;;;1.35;0.22;;;;;;;12.75;75.65;100823.41;4932557;29;20051;-78
2022/03/29 06:27:01;;;;;;;2.05;0.45;;;;;;;12.70;75.23;100818.09;4932998;29;20055;-78
2022/03/29 06:29:30;;;;;;;2.50;0.50;;;;;;;12.71;74.92;100819.88;4935426;29;20533;-79
2022/03/29 06:31:59;;;;;;;0.20;0.20;;;;;;;12.70;74.91;100817.22;4934050;29;20079;-79
2022/03/29 06:34:29;;;;;;;0.30;0.10;;;;;;;12.67;75.69;100831.03;4932951;29;20069;-78
2022/03/29 06:36:57;;;;;;;2.63;0.30;;;;;;;12.67;75.62;100831.03;4932839;29;20048;-78
2022/03/29 06:39:29;;;;;;;3.67;0.50;;;;;;;12.68;74.14;100843.16;4932875;29;20565;-78
2022/03/29 06:41:58;;;;;;;1.08;0.32;;;;;;;12.66;74.22;100847.44;4932640;29;20114;-78
2022/03/29 06:44:27;;;;;;;0.20;0.20;;;;;;;12.63;73.61;100856.88;4932333;29;20601;-78
2022/03/29 06:46:57;;;;;;;0.68;0.25;;;;;;;12.63;73.25;100856.88;4932932;29;20095;-78
2022/03/29 06:49:25;;;;;;;0.47;0.13;;;;;;;12.60;73.16;100860.28;4932422;29;20138;-78
2022/03/29 06:51:54;;;;;;;0.60;0.40;;;;;;;12.56;72.60;100859.34;4932306;29;20110;-78
2022/03/29 06:54:22;;;;;;;1.05;0.30;;;;;;;12.55;72.05;100867.06;4932542;29;20071;-77
2022/03/29 06:56:52;;;;;;;0.10;0.10;;;;;;;12.54;71.90;100867.94;4932743;29;20170;-78
2022/03/29 06:59:21;;;;;;;0.17;0.17;;;;;;;12.50;72.45;100869.56;4932132;29;20052;-77
2022/03/29 07:01:49;;;;;;;0.55;0.20;;;;;;;12.46;70.83;100866.84;4931969;29;20460;-77
2022/03/29 07:04:18;;;;;;;0.10;0.10;;;;;;;12.42;70.45;100872.84;4931919;29;20051;-78
2022/03/29 07:06:46;;;;;;;2.78;0.50;;;;;;;12.38;70.55;100868.41;4932515;29;20058;-77
2022/03/29 07:12:01;;;;;;;1.67;0.47;;;;;;;12.34;69.72;100876.09;4932570;29;20191;-78
2022/03/29 07:14:30;;;;;;;0.20;0.20;;;;;;;12.32;69.95;100882.09;4932778;29;20501;-79
2022/03/29 07:16:59;;;;;;;1.10;0.15;;;;;;;12.26;68.21;100889.75;4932538;29;20775;-79
2022/03/29 07:19:27;;;;;;;0.52;0.28;;;;;;;12.18;68.33;100886.06;4933039;29;20055;-79
2022/03/29 07:21:56;;;;;;;0.20;0.17;;;;;;;12.13;68.56;100888.56;4935326;29;20052;-78
2022/03/29 07:24:24;;;;;;;0.43;0.22;;;;;;;12.05;69.37;100892.66;4931663;29;20055;-79
2022/03/29 07:26:53;;;;;;;2.10;0.30;;;;;;;12.00;68.09;100897.72;4933876;29;20047;-79
2022/03/29 07:29:23;;;;;;;0.25;0.10;;;;;;;11.95;67.38;100901.91;4932323;29;20193;-78
2022/03/29 07:31:51;;;;;;;0.75;0.30;;;;;;;11.89;68.27;100897.47;4931951;29;20573;-78
2022/03/29 07:34:20;;;;;;;0.52;0.10;;;;;;;11.83;68.47;100896.38;4931751;29;20056;-78
2022/03/29 07:36:48;;;;;;;0.20;0.20;;;;;;;11.76;70.93;100892.75;4930840;29;20056;-79
2022/03/29 07:39:17;;;;;;;1.00;0.20;;;;;;;11.70;70.70;100884.81;4931616;29;20051;-79
2022/03/29 07:41:46;;;;;;;0.22;0.20;;;;;;;11.67;70.13;100900.28;4931923;29;20052;-78
2022/03/29 07:44:14;;;;;;;1.65;0.25;;;;;;;11.59;70.84;100889.72;4931135;29;20087;-79
2022/03/29 07:46:45;;;;;;;0.30;0.17;;;;;;;11.57;71.01;100899.16;4931920;29;20055;-79
2022/03/29 07:49:13;;;;;;;2.97;0.40;;;;;;;11.52;71.52;100904.22;4931514;29;20103;-78
2022/03/29 07:51:42;;;;;;;0.35;0.30;;;;;;;11.47;70.95;100897.13;4931010;29;20051;-79
2022/03/29 07:54:10;;;;;;;0.38;0.22;;;;;;;11.42;71.35;100902.19;4931297;29;20059;-80
2022/03/29 07:56:38;;;;;;;0.55;0.32;;;;;;;11.38;72.00;100904.66;4931684;29;20044;-79
2022/03/29 07:59:07;;;;;;;0.43;0.20;;;;;;;11.35;72.38;100908.03;4931399;29;20654;-78
2022/03/29 08:01:36;;;;;;;4.30;0.40;;;;;;;11.30;72.83;100905.31;4931214;29;20147;-79
2022/03/29 08:04:07;;;;;;;1.20;0.40;;;;;;;11.25;73.33;100912.06;4931032;29;20059;-78
2022/03/29 08:06:35;;;;;;;0.77;0.10;;;;;;;11.20;72.91;100908.47;4931475;29;20085;-78
2022/03/29 08:09:04;;;;;;;1.98;0.30;;;;;;;11.15;73.25;100910.03;4931258;29;20071;-78
2022/03/29 08:11:34;;;;;;;1.42;0.43;;;;;;;11.10;74.06;100912.47;4930876;29;20110;-79
2022/03/29 08:14:02;;;;;;;0.30;0.30;;;;;;;11.04;73.47;100916.59;4931616;29;20059;-78
2022/03/29 08:16:33;;;;;;;2.28;0.40;;;;;;;10.98;73.82;100917.31;4931152;29;20063;-80
2022/03/29 08:19:01;;;;;;;1.20;0.65;;;;;;;10.94;73.64;100925.81;4931674;28;20095;-78
2022/03/29 08:21:50;;;;;;;4.25;0.55;;;;;;;10.90;74.18;100919.69;4931628;29;20059;-78
2022/03/29 08:24:19;;;;;;;2.13;0.30;;;;;;;10.83;74.03;100924.59;4933770;29;20573;-78
2022/03/29 08:26:48;;;;;;;1.35;0.30;;;;;;;10.79;73.70;100921.03;4931260;29;20438;-79
2022/03/29 08:29:17;;;;;;;2.72;0.30;;;;;;;10.74;73.97;100926.91;4931121;29;20056;-79
2022/03/29 08:31:47;;;;;;;3.63;0.55;;;;;;;10.66;74.79;100929.25;4930741;29;20066;-79
2022/03/29 08:34:19;;;;;;;0.75;0.30;;;;;;;10.60;73.91;100934.22;4931123;29;20052;-80
2022/03/29 08:36:49;;;;;;;0.63;0.37;;;;;;;10.48;75.08;100934.69;4933585;29;20084;-79
2022/03/29 08:39:18;;;;;;;0.28;0.28;;;;;;;10.41;76.22;100940.50;4934664;29;20305;-78
2022/03/29 08:41:51;;;;;;;2.10;0.38;;;;;;;10.33;75.91;100939.38;4935183;29;20051;-78
2022/03/29 08:44:18;;;;;;;;;;;;;;;10.32;77.28;100938.50;4934643;29;20043;-78
2022/03/29 08:46:49;;;;;;;0.50;0.30;;;;;;;10.30;75.92;100936.69;4934996;29;19930;-79
2022/03/29 08:49:20;;;;;;;1.42;0.38;;;;;;;10.26;76.37;100939.16;4934646;29;20095;-78
2022/03/29 08:51:50;;;;;;;2.25;0.30;;;;;;;10.25;76.92;100944.25;4935039;29;20080;-79
2022/03/29 08:54:20;;;;;;;1.10;0.30;;;;;;;10.15;78.11;100932.72;4934423;29;20115;-80
2022/03/29 08:56:48;;;;;;;1.05;0.20;;;;;;;10.23;77.44;100959.72;4935341;29;20051;-78
2022/03/29 08:59:18;;;;;;;0.90;0.32;;;;;;;10.26;78.50;100961.50;4934968;29;20103;-78
2022/03/29 09:01:46;;;;;;;1.77;0.40;;;;;;;10.27;79.97;100963.28;4933904;29;20054;-80
2022/03/29 09:04:16;;;;;;;4.88;0.85;;;;;;;10.27;79.66;100971.94;4933959;29;20080;-80
2022/03/29 09:07:00;;;;;;;0.63;0.17;;;;;;;10.27;79.93;100964.16;4934841;29;20123;-78
2022/03/29 09:09:31;;;;;;;0.88;0.25;;;;;;;10.31;80.46;100964.28;4934255;29;20087;-78
2022/03/29 09:12:00;;;;;;;1.45;0.22;;;;;;;10.32;80.60;100966.94;4934676;29;20362;-78
2022/03/29 09:14:30;;;;;;;3.42;0.32;;;;;;;10.34;80.85;100967.00;4935296;29;20051;-79
2022/03/29 09:16:59;;;;;;;2.47;0.20;;;;;;;10.33;80.23;100962.63;4934228;29;20063;-79
2022/03/29 09:19:27;;;;;;;0.17;0.15;;;;;;;10.36;79.62;100968.81;4938599;28;20102;-79
2022/03/29 09:21:59;;;;;;;0.50;0.25;;;;;;;10.38;80.12;100979.22;4939688;29;20055;-78
2022/03/29 09:24:31;;;;;;;0.30;0.25;;;;;;;10.38;80.63;100966.28;4935993;29;20051;-79
2022/03/29 09:26:59;;;;;;;4.07;0.35;;;;;;;10.37;79.96;100961.94;4934680;29;20064;-79
2022/03/29 09:29:28;;;;;;;0.20;0.20;;;;;;;10.39;80.32;100962.84;4933899;29;20059;-79
2022/03/29 09:32:06;;;;;;;0.13;0.10;;;;;;;10.40;80.33;100969.78;4934230;29;20053;-79
2022/03/29 09:34:35;;;;;;;0.85;0.20;;;;;;;10.43;78.81;100978.53;4934190;29;20063;-79
2022/03/29 09:37:05;;;;;;;3.40;0.47;;;;;;;10.45;79.01;100978.59;4946712;28;20110;-80
2022/03/29 09:39:38;;;;;;;0.77;0.52;;;;;;;10.48;79.03;100976.09;4953807;29;20110;-79
2022/03/29 09:42:10;;;;;;;1.23;0.75;;;;;;;10.48;78.96;100976.09;4953105;29;20079;-79
2022/03/29 09:44:41;;;;;;;;;;;;;;;10.51;79.29;100986.53;4953012;29;20242;-79
2022/03/29 09:47:13;;;;;;;4.13;0.68;;;;;;;10.51;78.57;100981.38;4952753;28;19923;-79
2022/03/29 09:49:53;;;;;;;1.00;0.52;;;;;;;10.51;80.14;100971.00;4952386;29;20051;-79
2022/03/29 09:52:25;;;;;;;0.40;0.20;;;;;;;10.50;81.58;100979.63;4952711;29;20058;-80
2022/03/29 09:55:13;;;;;;;1.35;0.20;;;;;;;10.48;80.43;100976.09;4953347;29;20138;-79
2022/03/29 09:57:44;;;;;;;2.05;0.30;;;;;;;10.50;81.68;100983.91;4953522;29;20058;-79
2022/03/29 10:00:14;;;;;;;0.50;0.30;;;;;;;10.42;86.14;100981.97;4953072;29;20054;-79
2022/03/29 10:02:45;;;;;;;3.53;0.50;;;;;;;10.39;86.39;100987.00;4952691;29;20050;-79
2022/03/29 10:05:15;;;;;;;1.80;0.40;;;;;;;10.38;84.23;100984.38;4952912;29;20057;-79
2022/03/29 10:09:25;;;;;;;2.03;0.50;;;;;;;10.42;83.43;100988.81;4952866;29;20063;-79
2022/03/29 10:10:49;;;;;;;5.57;0.50;;;;;;;10.45;83.51;100988.94;4952253;29;20067;-80
2022/03/29 10:13:23;;;;;;;3.53;0.30;;;;;;;10.46;82.62;100993.28;4952491;29;20517;-79
2022/03/29 10:15:53;;;;;;;2.90;0.52;;;;;;;10.50;83.16;100996.84;4952808;29;20143;-78
2022/03/29 10:18:22;;;;;;;2.53;0.35;;;;;;;10.47;81.77;100987.28;4956266;28;20086;-78
2022/03/29 10:20:50;;;;;;;0.50;0.30;;;;;;;10.43;82.31;100981.13;4953632;29;20043;-79
2022/03/29 10:23:23;;;;;;;1.50;0.40;;;;;;;10.42;84.55;100981.97;4947129;29;20090;-80
2022/03/29 10:25:55;;;;;;;3.58;0.65;;;;;;;10.44;85.24;100984.56;4933568;29;20084;-79
2022/03/29 10:28:27;;;;;;;1.02;0.38;;;;;;;10.46;84.83;100982.94;4933214;29;20086;-79
2022/03/29 10:30:55;;;;;;;2.30;0.85;;;;;;;10.47;84.80;100984.69;4933135;29;20051;-80
2022/03/29 10:33:26;;;;;;;4.07;0.57;;;;;;;10.48;83.35;100983.84;4932931;29;20054;-78
2022/03/29 10:36:09;;;;;;;2.50;0.40;;;;;;;10.52;84.27;100993.50;4933173;29;20051;-79
2022/03/29 10:38:59;;;;;;;1.08;0.50;;;;;;;10.53;84.04;101000.41;4914505;29;20044;-80
2022/03/29 10:41:54;;;;;;;1.20;0.40;;;;;;;10.54;84.43;100997.00;4914249;29;20052;-80
2022/03/29 10:44:22;;;;;;;2.63;0.60;;;;;;;10.53;85.34;101007.31;4913284;29;20127;-79
2022/03/29 10:46:52;;;;;;;2.08;0.63;;;;;;;10.56;85.96;101005.72;4914578;29;20068;-80
2022/03/29 10:49:24;;;;;;;2.28;0.70;;;;;;;10.58;85.23;101013.50;4913772;29;20112;-81
2022/03/29 10:51:55;;;;;;;1.03;0.43;;;;;;;10.60;85.20;101011.84;4913564;29;20044;-81
2022/03/29 10:54:31;;;;;;;2.08;0.50;;;;;;;10.60;84.09;101011.84;4913539;29;20382;-80
2022/03/29 10:57:04;;;;;;;1.20;0.60;;;;;;;10.60;84.10;101015.31;4914113;29;20222;-81
2022/03/29 10:59:33;;;;;;;1.58;0.50;;;;;;;10.53;84.58;101008.16;4913747;29;20490;-80
2022/03/29 11:02:10;;;;;;;2.40;0.38;;;;;;;10.59;84.57;101015.28;4919625;29;20044;-80
2022/03/29 11:05:02;;;;;;;1.50;0.32;;;;;;;10.57;84.10;101012.63;4924815;29;20512;-80
2022/03/29 11:07:30;;;;;;;1.13;0.50;;;;;;;10.57;83.80;101007.44;4932745;29;20066;-80
2022/03/29 11:10:16;;;;;;;1.30;0.70;;;;;;;10.58;82.89;101009.22;4932082;29;20482;-81
2022/03/29 11:12:49;;;;;;;3.88;0.43;;;;;;;10.59;81.27;101010.97;4932404;29;20052;-80
2022/03/29 11:15:48;;;;;;;4.72;0.40;;;;;;;10.58;81.76;101003.16;4934270;29;20062;-80
2022/03/29 11:18:42;;;;;;;1.02;0.30;;;;;;;10.59;82.71;101008.38;4935975;28;20059;-80
2022/03/29 11:21:11;;;;;;;2.25;0.50;;;;;;;10.58;82.79;101009.22;4891430;29;20056;-80
2022/03/29 11:23:41;;;;;;;2.05;0.77;;;;;;;10.59;83.46;101007.50;4932439;29;20189;-79
2022/03/29 11:26:12;;;;;;;0.57;0.35;;;;;;;10.58;83.07;101009.22;4932434;29;20084;-81
2022/03/29 11:28:51;;;;;;;1.42;0.40;;;;;;;10.57;82.67;101022.09;4932331;29;20115;-81
2022/03/29 11:31:20;;;;;;;3.38;0.63;;;;;;;10.53;82.74;101021.09;4926086;29;20105;-81
2022/03/29 11:33:51;;;;;;;0.80;0.30;;;;;;;10.54;83.02;101028.06;4931305;29;20569;-81
2022/03/29 11:36:20;;;;;;;2.15;0.73;;;;;;;10.53;82.00;101021.09;4931193;29;20672;-80
2022/03/29 11:38:49;;;;;;;2.78;0.40;;;;;;;10.54;83.48;101027.19;4932271;29;20458;-80
2022/03/29 11:41:26;;;;;;;0.77;0.40;;;;;;;10.53;83.68;101015.94;4932158;29;20055;-81
2022/03/29 11:44:07;;;;;;;4.47;1.00;;;;;;;10.56;84.42;101025.50;4931489;29;20056;-80